map of MXJ home
Great Circle Mapper logo
MXJ - Airport
Location
City:  Minna, Nigeria
ICAO / IATA:DNMN / MXJ

Details
Type:Airport (Aerodrome, Airfield)
Use:Public/Civil
Latitude:939'08"N (9.652172)
Longitude:627'44"E (6.462256)
Datum:WGS 1984
Elevation:834 ft (254 m)
Runways:1
Longest:11153 × 145 ft (3399 × 44 m), paved

Time
Time Zone:UTC+1
Local Time:

Weather
METAR:DNMN 251700Z 14008KT 9999 SCT012 FEW020CB 28/24 Q1011
TAF:DNMN 250950Z 2512/2618 21010KT 9999 BKN011 PROB30
TEMPO 2512/25168 FEW020CB
BECMG 2517/2519 15006KT 9999 NSW SCT010
TEMPO 2522/2604 5000 RADZ BKN007 FEW018CB

Related Locations
Nearby:
Farthest:AAU: 12159 mi / 19568 km
Asau, WS

Find:

   beyond  
but within

Other Information
Maps:
NOTAMs:
Links:
Sources:

  
flag of Nigeria   

Sectional Chart

Flight Planning
at skyvector.com

Satellite Image

Google Maps Satellite View

 

Copyright © 2004-2014 Karl L. Swartz. All rights reserved.
The Great Circle Mapper name and logo are trademarks of the Great Circle Mapper.
All other trademarks mentioned herein belong to their respective owners.
Please see credits for attibutions and further copyright information.

  Follow gcmap on Facebook Follow gcmap on Twitter

hCard Microformat

Geo Microformat